Time;durP1;ratioP1;P1;durP2;ratioP2;P2;SDS_P1;SDS_P2;PMS_P1;PMS_P2;Temp;Humidity;BMP_temperature;BMP_pressure;BME280_temperature;BME280_humidity;BME280_pressure;Samples;Min_cycle;Max_cycle;Signal;HPM_P1;HPM_P2
2022/06/23 00:06:43;;;;;;;4.7;7.7;;;;;;;12.5;100;98270;;;;
2022/06/23 00:17:43;;;;;;;4.7;7.7;;;;;;;12.2;100;98260;;;;
2022/06/23 00:28:43;;;;;;;4.7;7.7;;;;;;;12;100;98260;;;;
2022/06/23 00:38:43;;;;;;;4;8.3;;;;;;;11.9;100;98250;;;;
2022/06/23 00:49:43;;;;;;;4;8.3;;;;;;;11.7;100;98260;;;;
2022/06/23 00:59:43;;;;;;;3.9;6.9;;;;;;;11.6;100;98260;;;;
2022/06/23 01:09:43;;;;;;;3.9;6.9;;;;;;;11.5;100;98250;;;;
2022/06/23 01:20:43;;;;;;;3.9;6.9;;;;;;;11.5;100;98260;;;;
2022/06/23 01:31:43;;;;;;;3.6;7.6;;;;;;;11.4;100;98260;;;;
2022/06/23 01:42:45;;;;;;;3.6;7.6;;;;;;;11.3;100;98270;;;;
2022/06/23 01:52:43;;;;;;;3.6;7.6;;;;;;;11.2;100;98280;;;;
2022/06/23 02:03:43;;;;;;;3.4;5.9;;;;;;;11;100;98290;;;;
2022/06/23 02:14:43;;;;;;;3.4;5.9;;;;;;;10.9;100;98290;;;;
2022/06/23 02:25:43;;;;;;;3.4;5.9;;;;;;;10.7;100;98300;;;;
2022/06/23 02:35:43;;;;;;;3.8;6.9;;;;;;;10.5;100;98310;;;;
2022/06/23 02:45:43;;;;;;;3.8;6.9;;;;;;;10.2;100;98320;;;;
2022/06/23 02:56:43;;;;;;;3.8;6.9;;;;;;;10.4;100;98330;;;;
2022/06/23 03:06:43;;;;;;;3.8;8.4;;;;;;;10.4;100;98340;;;;
2022/06/23 03:17:43;;;;;;;3.8;8.4;;;;;;;10.4;100;98350;;;;
2022/06/23 03:28:43;;;;;;;3.5;6.1;;;;;;;10.7;100;98370;;;;
2022/06/23 03:49:43;;;;;;;3.5;6.1;;;;;;;11.6;100;98380;;;;
2022/06/23 04:00:43;;;;;;;4.1;6.6;;;;;;;12.1;100;98380;;;;
2022/06/23 04:10:43;;;;;;;4.1;6.6;;;;;;;12.5;100;98400;;;;
2022/06/23 04:21:43;;;;;;;4.1;6.6;;;;;;;12.9;100;98410;;;;
2022/06/23 04:31:43;;;;;;;5;7.9;;;;;;;13.4;100;98420;;;;
2022/06/23 04:42:43;;;;;;;5;7.9;;;;;;;14;100;98430;;;;
2022/06/23 04:53:43;;;;;;;5;7.9;;;;;;;14.7;100;98440;;;;
2022/06/23 05:04:43;;;;;;;4.8;9.3;;;;;;;15.3;100;98460;;;;
2022/06/23 05:15:43;;;;;;;4.8;9.3;;;;;;;15.7;100;98460;;;;
2022/06/23 05:25:43;;;;;;;4.8;9.3;;;;;;;16.1;100;98460;;;;
2022/06/23 05:35:43;;;;;;;6;9.8;;;;;;;16.4;100;98480;;;;
2022/06/23 05:45:43;;;;;;;6;9.8;;;;;;;17;100;98490;;;;
2022/06/23 05:55:43;;;;;;;6;9.8;;;;;;;17.4;100;98500;;;;
2022/06/23 06:06:45;;;;;;;4.8;9.6;;;;;;;17.7;100;98500;;;;
2022/06/23 06:16:43;;;;;;;4.8;9.6;;;;;;;18.2;100;98510;;;;
2022/06/23 06:27:43;;;;;;;4.8;9.6;;;;;;;18.6;100;98520;;;;
2022/06/23 06:37:43;;;;;;;3.7;8.3;;;;;;;18.6;100;98520;;;;
2022/06/23 06:48:43;;;;;;;3.7;8.3;;;;;;;19.3;100;98540;;;;
2022/06/23 06:58:43;;;;;;;5.2;10;;;;;;;19.7;100;98550;;;;
2022/06/23 07:08:43;;;;;;;5.2;10;;;;;;;20.2;100;98550;;;;
2022/06/23 07:19:43;;;;;;;5.2;10;;;;;;;20.5;100;98560;;;;
2022/06/23 07:29:43;;;;;;;2.9;6.1;;;;;;;20.6;99.2;98570;;;;
2022/06/23 07:40:43;;;;;;;2.9;6.1;;;;;;;21.2;94.7;98580;;;;
2022/06/23 07:50:43;;;;;;;2.9;6.1;;;;;;;21.4;95.8;98580;;;;
2022/06/23 08:01:43;;;;;;;2.1;5.5;;;;;;;21.8;91.4;98580;;;;
2022/06/23 08:22:43;;;;;;;2.1;5.5;;;;;;;22.2;89.6;98580;;;;
2022/06/23 08:33:43;;;;;;;2;4.9;;;;;;;22.8;89.7;98590;;;;
2022/06/23 08:43:43;;;;;;;2;4.9;;;;;;;22.6;89.3;98600;;;;
2022/06/23 08:53:43;;;;;;;2;4.9;;;;;;;22.8;88.9;98590;;;;
2022/06/23 09:04:43;;;;;;;3.8;7.8;;;;;;;23.4;85.3;98590;;;;
2022/06/23 09:15:43;;;;;;;3.8;7.8;;;;;;;23.9;72.8;98590;;;;
2022/06/23 09:25:43;;;;;;;3.8;7.8;;;;;;;23.8;71.1;98590;;;;
2022/06/23 09:36:43;;;;;;;1.9;3.7;;;;;;;23.5;73.2;98600;;;;
2022/06/23 09:46:43;;;;;;;1.9;3.7;;;;;;;23.4;69.8;98590;;;;
2022/06/23 09:57:43;;;;;;;1.9;3.7;;;;;;;24;72.3;98590;;;;
2022/06/23 10:07:43;;;;;;;1.8;4.6;;;;;;;23.6;73.6;98580;;;;
2022/06/23 10:18:43;;;;;;;1.8;4.6;;;;;;;24.5;73.1;98590;;;;
2022/06/23 10:29:43;;;;;;;1.4;3.2;;;;;;;24.9;69.6;98590;;;;
2022/06/23 10:40:43;;;;;;;1.4;3.2;;;;;;;25;68.5;98600;;;;
2022/06/23 10:51:43;;;;;;;1.4;3.2;;;;;;;24.8;62.4;98600;;;;
2022/06/23 11:02:47;;;;;;;2.2;4.8;;;;;;;25;65.1;98590;;;;
2022/06/23 11:13:43;;;;;;;2.2;4.8;;;;;;;25.4;65.2;98580;;;;
2022/06/23 11:24:43;;;;;;;2.2;4.8;;;;;;;25;61.2;98580;;;;
2022/06/23 11:45:43;;;;;;;1.8;3.6;;;;;;;25.1;63.7;98570;;;;
2022/06/23 11:56:43;;;;;;;1.8;3.6;;;;;;;25.9;60.8;98550;;;;
2022/06/23 12:06:43;;;;;;;1.5;3.6;;;;;;;25.7;60.8;98550;;;;
2022/06/23 12:17:43;;;;;;;1.5;3.6;;;;;;;25.9;61.5;98550;;;;
2022/06/23 12:27:43;;;;;;;1.5;3.6;;;;;;;25.1;61.2;98550;;;;
2022/06/23 12:37:43;;;;;;;2.1;5.4;;;;;;;25.8;64.1;98540;;;;
2022/06/23 12:48:43;;;;;;;2.1;5.4;;;;;;;25.5;58.6;98540;;;;
2022/06/23 12:59:43;;;;;;;1.8;5;;;;;;;25.7;58.1;98530;;;;
2022/06/23 13:09:43;;;;;;;1.8;5;;;;;;;26.2;55.9;98540;;;;
2022/06/23 13:20:44;;;;;;;1.8;5;;;;;;;26.5;56.8;98530;;;;
2022/06/23 13:30:43;;;;;;;1.5;3.4;;;;;;;27.4;56.8;98530;;;;
2022/06/23 13:41:44;;;;;;;1.5;3.4;;;;;;;27;57.6;98530;;;;
2022/06/23 13:52:43;;;;;;;1.5;3.4;;;;;;;27.7;53.6;98530;;;;
2022/06/23 14:02:43;;;;;;;1.6;5.8;;;;;;;27.1;54.6;98520;;;;
2022/06/23 14:12:43;;;;;;;1.6;5.8;;;;;;;26.1;56.4;98520;;;;
2022/06/23 14:23:46;;;;;;;1.6;5.8;;;;;;;27.2;54.1;98520;;;;
2022/06/23 14:33:43;;;;;;;1.7;4.4;;;;;;;28.1;55.6;98510;;;;
2022/06/23 14:44:43;;;;;;;1.7;4.4;;;;;;;28.4;52;98510;;;;
2022/06/23 14:55:43;;;;;;;1.7;4.4;;;;;;;28.4;49.4;98520;;;;
2022/06/23 15:05:43;;;;;;;1.9;5.1;;;;;;;30.8;45.9;98510;;;;
2022/06/23 15:16:43;;;;;;;1.9;5.1;;;;;;;33.2;43.8;98510;;;;
2022/06/23 15:27:43;;;;;;;1.9;5.1;;;;;;;33.1;40;98510;;;;
2022/06/23 15:38:43;;;;;;;1.7;5.3;;;;;;;34.6;41.1;98500;;;;
2022/06/23 15:49:43;;;;;;;1.7;5.3;;;;;;;34.1;40.3;98500;;;;
2022/06/23 15:59:43;;;;;;;1.4;3.5;;;;;;;36.2;39;98500;;;;
2022/06/23 16:10:43;;;;;;;1.4;3.5;;;;;;;34.5;37.9;98500;;;;
2022/06/23 16:20:45;;;;;;;1.4;3.5;;;;;;;32.7;40.6;98500;;;;
2022/06/23 16:30:43;;;;;;;1.3;3.6;;;;;;;33.8;40.4;98500;;;;
2022/06/23 16:40:43;;;;;;;1.3;3.6;;;;;;;34.5;40.2;98490;;;;
2022/06/23 16:50:43;;;;;;;1.3;3.6;;;;;;;37.6;36.4;98490;;;;
2022/06/23 17:01:43;;;;;;;1.5;3.4;;;;;;;35.6;37.3;98490;;;;
2022/06/23 17:11:43;;;;;;;1.5;3.4;;;;;;;34.3;39.1;98480;;;;
2022/06/23 17:22:44;;;;;;;1.5;3.4;;;;;;;30.5;44.9;98470;;;;
2022/06/23 17:33:43;;;;;;;1.9;4.3;;;;;;;32.1;44.5;98480;;;;
2022/06/23 17:44:43;;;;;;;1.9;4.3;;;;;;;31.7;46.6;98490;;;;
2022/06/23 17:54:43;;;;;;;1.9;4.3;;;;;;;33.5;43.2;98500;;;;
2022/06/23 18:04:43;;;;;;;1.6;4.9;;;;;;;32.6;43.6;98490;;;;
2022/06/23 18:15:43;;;;;;;1.6;4.9;;;;;;;28;51.5;98490;;;;
2022/06/23 18:25:43;;;;;;;1.6;4.9;;;;;;;25.8;60;98490;;;;
2022/06/23 18:36:46;;;;;;;2;5.9;;;;;;;24.2;65.5;98500;;;;
2022/06/23 18:47:43;;;;;;;2;5.9;;;;;;;23;70.2;98500;;;;
2022/06/23 18:58:43;;;;;;;2;5.9;;;;;;;22.1;74.6;98500;;;;
2022/06/23 19:08:43;;;;;;;3.2;6.8;;;;;;;21.4;81.2;98500;;;;
2022/06/23 19:18:43;;;;;;;3.2;6.8;;;;;;;20.9;85.8;98520;;;;
2022/06/23 19:28:43;;;;;;;3.2;6.8;;;;;;;20.3;89.1;98530;;;;
2022/06/23 19:39:43;;;;;;;4;10.2;;;;;;;19.8;91.2;98530;;;;
2022/06/23 19:49:43;;;;;;;4;10.2;;;;;;;19.5;93.7;98520;;;;
2022/06/23 19:59:45;;;;;;;4.5;12;;;;;;;19.1;96.3;98520;;;;
2022/06/23 20:10:43;;;;;;;4.5;12;;;;;;;18.8;99.9;98510;;;;
2022/06/23 20:21:43;;;;;;;4.5;12;;;;;;;18.5;100;98520;;;;
2022/06/23 20:32:43;;;;;;;5;8;;;;;;;18.3;100;98520;;;;
2022/06/23 20:42:43;;;;;;;5;8;;;;;;;18.2;100;98510;;;;
2022/06/23 20:53:43;;;;;;;5;8;;;;;;;18;100;98520;;;;
2022/06/23 21:04:43;;;;;;;5.3;9.6;;;;;;;17.8;100;98510;;;;
2022/06/23 21:14:43;;;;;;;5.3;9.6;;;;;;;17.6;100;98520;;;;
2022/06/23 21:25:43;;;;;;;5.3;9.6;;;;;;;17.4;100;98520;;;;
2022/06/23 21:35:43;;;;;;;3.8;8.3;;;;;;;17.2;100;98520;;;;
2022/06/23 21:45:44;;;;;;;3.8;8.3;;;;;;;17;100;98500;;;;
2022/06/23 21:55:43;;;;;;;3.8;8.3;;;;;;;16.9;100;98500;;;;
2022/06/23 22:05:43;;;;;;;3.3;7.4;;;;;;;16.8;100;98500;;;;
2022/06/23 22:16:44;;;;;;;3.3;7.4;;;;;;;16.5;100;98510;;;;
2022/06/23 22:26:44;;;;;;;3.3;7.4;;;;;;;16.4;100;98510;;;;
2022/06/23 22:36:43;;;;;;;3.7;9.6;;;;;;;16;100;98520;;;;
2022/06/23 22:46:43;;;;;;;3.7;9.6;;;;;;;15.7;100;98530;;;;
2022/06/23 22:57:43;;;;;;;3.7;9.6;;;;;;;15.5;100;98520;;;;
2022/06/23 23:07:43;;;;;;;4.2;6.9;;;;;;;15.3;100;98520;;;;
2022/06/23 23:18:43;;;;;;;4.2;6.9;;;;;;;14.9;100;98530;;;;
2022/06/23 23:29:43;;;;;;;5.5;8.4;;;;;;;14.4;100;98530;;;;
2022/06/23 23:39:43;;;;;;;5.5;8.4;;;;;;;14.3;100;98520;;;;
2022/06/23 23:49:43;;;;;;;5.5;8.4;;;;;;;14.1;100;98510;;;;
